Time;durP1;ratioP1;P1;durP2;ratioP2;P2;SDS_P1;SDS_P2;PMS_P1;PMS_P2;Temp;Humidity;BMP_temperature;BMP_pressure;BME280_temperature;BME280_humidity;BME280_pressure;Samples;Min_cycle;Max_cycle;Signal;HPM_P1;HPM_P2
2022/07/17 00:00:42;;;;;;;5.00;4.20;;;14.70;53.30;;;13.93;56.27;98779.72;5008316;28;20450;-74
2022/07/17 00:03:10;;;;;;;9.03;4.00;;;14.80;53.10;;;13.96;56.75;98790.16;5008899;28;20555;-72
2022/07/17 00:05:37;;;;;;;5.10;4.43;;;14.90;53.20;;;13.89;56.77;98792.06;5005492;28;20459;-73
2022/07/17 00:08:06;;;;;;;4.47;4.10;;;14.80;53.10;;;13.94;56.45;98791.41;5008563;28;20477;-72
2022/07/17 00:10:35;;;;;;;4.30;4.00;;;14.80;53.00;;;13.65;57.06;98788.25;5007276;28;20541;-73
2022/07/17 00:13:02;;;;;;;6.20;4.67;;;14.70;53.30;;;13.15;57.98;98733.50;5008373;28;21298;-73
2022/07/17 00:15:30;;;;;;;5.40;4.27;;;14.50;53.60;;;13.44;59.05;98799.19;5006268;28;20451;-72
2022/07/17 00:17:58;;;;;;;3.97;3.63;;;14.40;54.50;;;13.39;59.40;98809.81;5006700;28;20470;-75
2022/07/17 00:20:26;;;;;;;4.43;4.13;;;14.30;55.30;;;13.64;58.98;98808.28;5007001;28;21029;-73
2022/07/17 00:22:55;;;;;;;5.77;4.83;;;14.40;55.20;;;13.70;59.16;98807.41;5006743;28;20947;-73
2022/07/17 00:25:23;;;;;;;5.37;4.57;;;14.60;55.40;;;13.62;60.10;98810.41;5006264;28;21092;-73
2022/07/17 00:27:52;;;;;;;5.47;4.97;;;14.60;56.10;;;13.58;59.92;98805.41;5008540;28;20453;-73
2022/07/17 00:30:21;;;;;;;5.90;4.57;;;14.50;56.00;;;13.53;59.95;98805.19;5008792;28;20482;-73
2022/07/17 00:32:48;;;;;;;6.47;4.13;;;14.40;56.20;;;13.55;60.33;98816.66;5022048;28;20496;-72
2022/07/17 00:35:15;;;;;;;5.03;4.60;;;14.40;56.50;;;12.97;61.01;98745.06;5012237;28;20508;-74
2022/07/17 00:37:45;;;;;;;4.93;4.07;;;14.30;57.10;;;13.28;61.36;98816.75;5010444;28;20458;-73
2022/07/17 00:40:19;;;;;;;4.63;4.33;;;14.20;57.40;;;13.12;61.86;98806.38;5012374;28;20492;-73
2022/07/17 00:42:46;;;;;;;6.27;5.40;;;14.10;58.20;;;13.30;61.74;98814.66;5020091;28;20445;-71
2022/07/17 00:45:15;;;;;;;7.20;5.43;;;14.20;58.50;;;13.17;62.02;98820.13;5013323;28;20445;-72
2022/07/17 00:47:54;;;;;;;5.00;4.60;;;14.10;58.80;;;12.83;62.25;98775.97;5019657;28;20504;-72
2022/07/17 00:50:23;;;;;;;5.07;4.40;;;14.10;59.10;;;13.06;62.14;98818.06;5011338;28;20476;-72
2022/07/17 00:52:50;;;;;;;5.50;5.03;;;14.10;59.10;;;13.17;61.58;98825.56;5012713;28;20454;-73
2022/07/17 00:55:19;;;;;;;7.57;4.37;;;14.10;58.70;;;13.09;61.55;98828.47;5010811;28;20482;-73
2022/07/17 00:57:49;;;;;;;4.43;4.03;;;14.00;58.80;;;13.03;61.25;98819.31;5011806;28;20934;-72
2022/07/17 01:00:18;;;;;;;5.37;4.23;;;14.00;58.70;;;13.02;62.11;98832.06;5011062;28;20465;-73
2022/07/17 01:02:48;;;;;;;5.17;4.20;;;13.90;59.10;;;12.92;62.20;98818.06;5012127;28;20966;-73
2022/07/17 01:05:16;;;;;;;5.73;4.23;;;13.90;59.30;;;12.82;62.51;98837.50;5003790;28;20460;-73
2022/07/17 01:07:43;;;;;;;4.80;4.50;;;13.80;59.70;;;12.69;62.85;98826.66;5011341;28;20505;-71
2022/07/17 01:10:11;;;;;;;5.13;4.47;;;13.70;60.10;;;12.89;62.56;98834.78;5009380;28;22957;-72
2022/07/17 01:12:40;;;;;;;5.07;4.57;;;13.80;60.80;;;12.62;63.23;98815.81;5010612;28;20470;-72
2022/07/17 01:15:10;;;;;;;5.37;4.87;;;13.70;61.20;;;12.67;63.47;98823.31;5009519;28;20540;-73
2022/07/17 01:17:39;;;;;;;5.63;5.13;;;13.60;61.90;;;12.58;63.71;98820.00;5026376;28;20466;-73
2022/07/17 01:20:09;;;;;;;5.87;4.67;;;13.60;62.10;;;12.44;64.13;98827.31;5003358;28;20466;-74
2022/07/17 01:22:43;;;;;;;4.30;4.00;;;13.40;62.60;;;12.40;64.36;98826.03;5009578;28;20496;-74
2022/07/17 01:25:11;;;;;;;4.63;4.33;;;13.40;63.50;;;12.32;64.42;98827.91;5002517;28;20460;-73
2022/07/17 01:27:39;;;;;;;5.73;4.80;;;13.40;63.60;;;12.26;64.85;98833.31;5006611;28;20886;-74
2022/07/17 01:30:08;;;;;;;5.23;4.07;;;13.20;64.40;;;12.31;64.84;98839.78;5002489;28;20526;-72
2022/07/17 01:32:37;;;;;;;5.10;4.70;;;13.20;65.10;;;12.26;64.97;98841.44;5002746;28;20461;-72
2022/07/17 01:35:06;;;;;;;4.20;3.90;;;13.20;65.00;;;12.14;65.26;98844.75;4997588;28;20879;-73
2022/07/17 01:37:34;;;;;;;5.20;4.80;;;13.10;65.80;;;12.16;64.90;98848.09;5003925;28;20463;-73
2022/07/17 01:40:02;;;;;;;5.33;4.83;;;13.10;65.90;;;12.16;64.71;98842.69;5004567;28;21029;-72
2022/07/17 01:42:31;;;;;;;6.77;5.77;;;13.10;65.80;;;12.09;65.16;98846.41;5001309;28;20935;-72
2022/07/17 01:44:59;;;;;;;5.20;4.70;;;13.10;65.90;;;11.95;64.98;98845.53;5016876;28;20475;-72
2022/07/17 01:47:27;;;;;;;4.10;3.70;;;13.00;65.80;;;12.00;65.43;98843.88;5003008;28;20990;-73
2022/07/17 01:49:57;;;;;;;5.20;4.60;;;12.90;66.30;;;12.06;64.67;98842.25;5001790;28;20494;-73
2022/07/17 01:52:26;;;;;;;4.60;3.70;;;13.00;66.50;;;12.01;65.01;98848.28;5003512;28;20830;-72
2022/07/17 01:54:54;;;;;;;6.50;3.90;;;13.00;66.30;;;12.01;64.76;98852.81;5004142;28;20454;-73
2022/07/17 01:57:23;;;;;;;5.07;4.17;;;13.00;66.00;;;12.04;64.38;98845.16;5002796;28;20465;-72
2022/07/17 01:59:50;;;;;;;4.90;4.40;;;13.00;65.80;;;11.89;64.08;98848.00;5003090;28;20496;-73
2022/07/17 02:02:17;;;;;;;4.90;4.40;;;12.90;65.20;;;11.91;65.22;98836.97;5002529;28;20527;-72
2022/07/17 02:04:45;;;;;;;5.43;4.70;;;12.90;66.20;;;12.08;64.29;98829.34;5002965;28;20887;-72
2022/07/17 02:07:13;;;;;;;7.50;4.50;;;13.00;66.30;;;12.12;64.56;98833.31;5015420;28;20463;-72
2022/07/17 02:09:40;;;;;;;5.50;3.10;;;13.00;66.00;;;12.02;62.91;98827.44;5005399;28;20560;-71
2022/07/17 02:12:08;;;;;;;5.10;4.40;;;13.00;64.90;;;12.28;64.34;98828.53;5003417;28;20458;-74
2022/07/17 02:14:37;;;;;;;5.07;4.67;;;13.20;65.80;;;12.32;64.33;98824.34;5003699;28;20506;-72
2022/07/17 02:17:05;;;;;;;6.47;5.07;;;13.30;65.80;;;12.11;64.97;98815.38;5012683;28;20463;-73
2022/07/17 02:19:33;;;;;;;6.03;5.43;;;13.20;66.50;;;12.05;64.99;98821.59;5016594;28;20940;-72
2022/07/17 02:22:00;;;;;;;6.23;5.57;;;13.10;66.70;;;11.84;66.06;98820.69;5003983;28;20546;-74
2022/07/17 02:24:27;;;;;;;5.73;5.20;;;12.90;67.10;;;11.87;65.60;98823.00;5001927;28;20486;-75
2022/07/17 02:26:55;;;;;;;7.07;4.80;;;12.90;66.90;;;11.77;65.74;98820.69;5004290;28;20477;-72
2022/07/17 02:29:22;;;;;;;5.87;3.70;;;12.80;67.80;;;11.82;64.44;98817.38;5004459;28;20481;-72
2022/07/17 02:31:51;;;;;;;4.20;3.90;;;12.80;66.80;;;11.85;65.73;98819.66;4996914;28;20495;-73
2022/07/17 02:34:18;;;;;;;5.03;3.80;;;12.80;67.30;;;11.58;65.40;98808.75;4998023;28;20462;-74
2022/07/17 02:36:45;;;;;;;5.60;3.77;;;12.70;67.00;;;11.69;64.87;98823.59;5001123;28;20970;-72
2022/07/17 02:39:12;;;;;;;4.80;4.03;;;12.70;66.80;;;11.65;65.57;98818.78;5003016;28;20515;-74
2022/07/17 02:41:40;;;;;;;5.60;4.10;;;12.60;67.10;;;11.48;66.01;98827.25;5021684;28;20458;-72
2022/07/17 02:44:07;;;;;;;3.83;3.53;;;12.50;67.00;;;11.38;65.28;98826.78;5005978;28;20458;-73
2022/07/17 02:46:34;;;;;;;4.73;4.10;;;12.40;67.00;;;11.32;66.30;98831.97;5008251;28;20457;-72
2022/07/17 02:49:03;;;;;;;4.23;3.80;;;12.30;67.30;;;11.33;65.98;98830.94;5023654;28;20453;-72
2022/07/17 02:51:31;;;;;;;3.57;3.27;;;12.30;67.70;;;11.37;65.11;98822.41;5009482;28;20441;-72
2022/07/17 02:53:58;;;;;;;6.67;4.23;;;12.30;67.60;;;11.28;66.14;98825.25;5005764;28;20895;-72
2022/07/17 02:56:25;;;;;;;4.97;4.00;;;12.30;68.20;;;11.31;66.02;98829.44;5006496;28;20468;-74
2022/07/17 02:58:52;;;;;;;4.20;3.80;;;12.20;68.60;;;11.58;65.02;98826.88;5016426;28;20549;-71
2022/07/17 03:01:19;;;;;;;4.27;3.87;;;12.40;67.80;;;11.56;65.23;98821.66;5019847;28;20458;-73
2022/07/17 03:03:47;;;;;;;4.73;3.97;;;12.60;67.50;;;11.45;65.13;98835.78;5014246;28;20465;-72
2022/07/17 03:06:15;;;;;;;5.00;3.30;;;12.50;67.40;;;11.57;64.78;98823.31;5007480;28;20461;-74
2022/07/17 03:08:42;;;;;;;4.50;4.10;;;12.50;67.30;;;11.59;64.24;98823.94;5009208;28;20444;-73
2022/07/17 03:11:10;;;;;;;3.97;3.00;;;12.60;66.60;;;11.43;65.59;98832.41;5014535;28;20478;-74
2022/07/17 03:13:37;;;;;;;3.53;3.23;;;12.50;67.10;;;11.43;64.95;98816.16;4997751;28;21202;-72
2022/07/17 03:16:05;;;;;;;3.90;3.47;;;12.50;66.40;;;11.48;64.90;98817.25;5008601;28;20552;-74
2022/07/17 03:18:33;;;;;;;4.00;3.37;;;12.40;67.00;;;11.42;64.50;98819.91;5007212;28;20860;-73
2022/07/17 03:21:00;;;;;;;4.33;3.67;;;12.50;66.80;;;11.26;65.44;98826.50;5009015;28;20453;-73
2022/07/17 03:23:29;;;;;;;6.50;3.90;;;12.30;67.20;;;11.26;65.32;98823.81;5001691;28;20482;-73
2022/07/17 03:25:56;;;;;;;3.67;3.37;;;12.30;67.30;;;11.38;64.98;98834.88;4993955;28;20465;-72
2022/07/17 03:28:24;;;;;;;4.87;3.60;;;12.30;67.40;;;11.28;65.50;98833.38;5002534;28;20810;-72
2022/07/17 03:30:51;;;;;;;3.90;3.13;;;12.30;66.90;;;11.29;64.56;98832.34;5007233;28;20468;-72
2022/07/17 03:33:19;;;;;;;3.57;3.30;;;12.30;66.30;;;11.32;65.07;98837.38;5007639;28;21003;-73
2022/07/17 03:35:46;;;;;;;4.00;3.53;;;12.30;66.50;;;11.16;65.89;98835.81;4997828;28;21077;-73
2022/07/17 03:38:13;;;;;;;3.97;3.20;;;12.30;66.70;;;11.13;64.94;98838.06;4998290;28;20483;-73
2022/07/17 03:40:42;;;;;;;3.83;3.53;;;12.20;67.20;;;11.31;64.67;98832.16;5006860;28;20599;-73
2022/07/17 03:43:10;;;;;;;3.97;3.40;;;12.30;66.90;;;11.17;64.61;98815.03;5008602;28;20550;-71
2022/07/17 03:45:37;;;;;;;3.73;3.50;;;12.30;66.50;;;11.11;65.27;98840.16;5005926;28;20515;-74
2022/07/17 03:48:04;;;;;;;4.33;3.67;;;12.20;66.50;;;11.20;65.09;98838.97;5008442;28;20453;-72
2022/07/17 03:50:32;;;;;;;3.57;3.30;;;12.20;66.80;;;11.18;64.81;98835.63;5005274;28;20544;-71
2022/07/17 03:52:59;;;;;;;4.33;3.20;;;12.20;66.50;;;11.30;64.44;98839.44;5007408;28;20456;-73
2022/07/17 03:55:27;;;;;;;4.67;3.80;;;12.30;66.20;;;11.41;64.04;98840.75;5005921;28;20472;-72
2022/07/17 03:57:55;;;;;;;4.33;3.80;;;12.40;65.90;;;11.45;64.55;98843.88;4994631;28;20459;-74
2022/07/17 04:00:22;;;;;;;5.23;3.97;;;12.50;65.90;;;11.31;64.14;98851.09;4995952;28;20443;-73
2022/07/17 04:02:50;;;;;;;4.37;3.80;;;12.40;65.60;;;11.27;64.68;98847.94;5007949;28;20531;-72
2022/07/17 04:05:17;;;;;;;3.70;3.30;;;12.30;66.00;;;11.49;64.13;98853.25;5004633;28;20518;-72
2022/07/17 04:07:44;;;;;;;5.00;3.03;;;12.50;66.10;;;11.35;63.61;98846.94;5010366;28;20539;-73
2022/07/17 04:10:14;;;;;;;6.00;3.10;;;12.40;65.30;;;11.48;64.10;98849.72;5011489;28;20564;-74
2022/07/17 04:12:42;;;;;;;4.10;3.20;;;12.50;65.30;;;11.58;64.02;98845.81;5012185;28;20943;-74
2022/07/17 04:15:11;;;;;;;3.50;3.20;;;12.50;65.40;;;11.69;63.09;98847.09;5001547;28;20467;-73
2022/07/17 04:17:38;;;;;;;3.00;2.80;;;12.70;65.10;;;12.23;61.56;98848.09;5007306;28;20564;-74
2022/07/17 04:20:07;;;;;;;3.30;2.70;;;13.10;64.30;;;12.96;59.06;98851.03;4997566;28;20535;-74
2022/07/17 04:22:34;;;;;;;3.80;2.53;;;13.90;62.40;;;14.29;55.85;98842.59;5008899;28;20566;-72
2022/07/17 04:25:01;;;;;;;5.30;2.77;;;15.20;59.90;;;15.60;51.19;98834.72;5009356;28;20455;-73
2022/07/17 04:27:29;;;;;;;3.73;2.83;;;16.70;55.90;;;16.20;49.58;98835.84;4998195;28;20471;-74
2022/07/17 04:29:56;;;;;;;4.40;2.37;;;17.50;53.60;;;17.19;46.51;98833.59;5022309;28;20825;-73
2022/07/17 04:32:25;;;;;;;4.23;2.63;;;18.40;51.40;;;17.46;44.93;98833.91;5006637;28;20439;-74
2022/07/17 04:34:52;;;;;;;4.87;2.23;;;19.00;49.60;;;17.79;44.69;98832.38;5006646;28;20454;-75
2022/07/17 04:37:20;;;;;;;3.53;2.57;;;19.30;49.20;;;16.67;47.20;98833.22;5011859;28;20491;-73
2022/07/17 04:39:47;;;;;;;2.70;2.50;;;19.00;48.90;;;17.82;44.73;98826.47;5013752;28;20466;-74
2022/07/17 04:42:14;;;;;;;5.10;2.70;;;19.40;48.60;;;18.46;43.25;98827.34;5005850;28;21329;-73
2022/07/17 04:44:42;;;;;;;2.90;2.57;;;20.10;47.80;;;18.90;42.29;98829.44;5009783;28;20501;-74
2022/07/17 04:47:11;;;;;;;3.07;2.23;;;20.30;47.40;;;18.40;43.45;98826.44;5004022;28;20557;-74
2022/07/17 04:49:40;;;;;;;3.10;2.20;;;20.30;47.40;;;19.36;40.94;98825.72;5006432;28;20545;-75
2022/07/17 04:52:07;;;;;;;3.20;2.03;;;20.50;46.70;;;19.28;40.56;98834.38;5006892;28;20459;-74
2022/07/17 04:54:34;;;;;;;3.80;1.80;;;20.80;46.10;;;19.53;40.31;98825.66;5003534;28;20464;-73
2022/07/17 04:57:01;;;;;;;3.10;2.27;;;21.20;45.80;;;20.29;39.27;98826.81;5002497;28;21011;-74
2022/07/17 04:59:29;;;;;;;2.70;2.23;;;21.60;45.80;;;20.02;39.34;98827.63;5001408;28;20592;-71
2022/07/17 05:01:56;;;;;;;4.10;2.10;;;21.90;45.10;;;19.52;39.78;98834.97;5005127;28;20466;-72
2022/07/17 05:04:23;;;;;;;5.30;2.27;;;21.90;44.60;;;20.12;39.78;98828.81;4999539;28;20473;-72
2022/07/17 05:06:51;;;;;;;3.70;2.07;;;21.90;45.10;;;21.03;37.18;98829.06;5005795;28;20475;-76
2022/07/17 05:09:18;;;;;;;3.73;2.10;;;22.30;44.50;;;21.36;36.33;98835.28;5003023;28;20456;-77
2022/07/17 05:11:46;;;;;;;3.47;2.43;;;22.70;44.20;;;22.05;35.19;98833.38;5023936;28;20482;-77
2022/07/17 05:14:13;;;;;;;4.93;2.20;;;23.30;43.70;;;21.77;35.54;98834.69;5003052;28;20467;-78
2022/07/17 05:16:40;;;;;;;4.20;2.33;;;23.40;43.50;;;21.18;36.05;98837.41;5004957;28;20852;-74
2022/07/17 05:19:08;;;;;;;3.07;2.00;;;23.00;43.00;;;20.72;37.24;98835.13;5009730;28;20502;-77
2022/07/17 05:21:35;;;;;;;3.20;1.80;;;22.90;43.10;;;20.82;37.22;98837.13;5014809;28;20460;-76
2022/07/17 05:24:04;;;;;;;3.20;1.70;;;22.60;43.40;;;20.61;37.64;98839.72;5033956;28;20556;-76
2022/07/17 05:26:31;;;;;;;1.83;1.60;;;22.80;43.30;;;20.28;38.06;98830.63;5018776;28;20464;-74
2022/07/17 05:28:58;;;;;;;2.50;1.73;;;22.50;43.20;;;20.83;37.06;98833.31;5032343;28;20464;-77
2022/07/17 05:31:26;;;;;;;3.53;1.60;;;22.50;43.30;;;20.23;38.01;98833.31;5003843;28;20571;-79
2022/07/17 05:33:53;;;;;;;3.27;1.80;;;22.20;43.30;;;20.83;36.61;98829.75;5019107;28;20463;-74
2022/07/17 05:36:20;;;;;;;2.00;1.77;;;22.30;43.20;;;21.00;36.16;98813.09;5004307;28;20462;-78
2022/07/17 05:38:48;;;;;;;3.47;1.93;;;22.70;43.00;;;20.54;37.44;98825.34;4998568;28;20460;-78
2022/07/17 05:41:16;;;;;;;3.40;2.17;;;22.60;43.00;;;21.11;36.31;98842.28;5010791;28;20455;-77
2022/07/17 05:43:43;;;;;;;2.93;1.70;;;22.80;43.00;;;21.60;35.30;98843.09;5006764;28;20464;-78
2022/07/17 05:46:10;;;;;;;3.33;2.00;;;23.20;42.60;;;21.02;35.99;98838.41;5013456;28;20526;-78
2022/07/17 05:48:40;;;;;;;3.00;1.80;;;23.10;42.30;;;20.52;36.93;98846.75;5004617;28;20456;-77
2022/07/17 05:51:07;;;;;;;1.73;1.60;;;22.60;42.40;;;20.24;38.05;98848.69;5004747;28;20569;-77
2022/07/17 05:53:34;;;;;;;5.23;2.37;;;22.20;43.10;;;20.91;36.58;98849.31;5001179;28;20572;-78
2022/07/17 05:56:02;;;;;;;2.40;2.00;;;22.40;42.90;;;21.57;35.50;98849.13;5004229;28;20471;-78
2022/07/17 05:58:31;;;;;;;3.30;2.20;;;23.10;42.80;;;20.90;36.64;98853.16;5003951;28;20463;-71
2022/07/17 06:00:58;;;;;;;3.83;1.90;;;22.70;42.50;;;21.28;36.28;98857.78;4999046;28;21024;-78
2022/07/17 06:03:25;;;;;;;1.80;1.70;;;22.90;42.80;;;22.36;34.20;98858.19;5006149;28;20456;-78
2022/07/17 06:05:52;;;;;;;2.17;1.87;;;23.70;42.60;;;22.63;33.90;98857.16;5001164;28;20468;-75
2022/07/17 06:08:19;;;;;;;5.80;1.67;;;24.10;42.10;;;22.43;34.36;98862.63;5003393;28;20470;-79
2022/07/17 06:10:46;;;;;;;2.60;1.50;;;24.40;41.90;;;23.20;32.34;98857.13;5007645;28;21324;-79
2022/07/17 06:13:14;;;;;;;1.67;1.53;;;24.60;41.50;;;22.86;33.36;98863.22;5002779;28;20575;-79
2022/07/17 06:15:42;;;;;;;2.83;1.80;;;24.70;41.60;;;22.88;32.61;98863.78;5016702;28;20844;-76
2022/07/17 06:18:10;;;;;;;2.43;1.57;;;24.80;41.10;;;23.21;32.34;98869.78;5009465;28;20452;-78
2022/07/17 06:20:38;;;;;;;2.97;1.73;;;24.70;41.30;;;23.13;32.46;98862.13;5002441;28;20509;-78
2022/07/17 06:23:05;;;;;;;2.17;1.50;;;24.80;41.40;;;23.01;32.70;98864.31;5001387;28;20832;-75
2022/07/17 06:25:32;;;;;;;2.87;1.57;;;25.10;41.20;;;22.49;33.20;98869.81;4994998;28;20457;-78
2022/07/17 06:27:59;;;;;;;2.00;1.40;;;24.60;40.80;;;21.96;34.38;98870.78;5004856;28;20470;-79
2022/07/17 06:30:26;;;;;;;3.20;1.80;;;23.80;41.20;;;19.87;37.49;98879.53;5000031;28;20543;-76
2022/07/17 06:32:56;;;;;;;2.43;1.40;;;22.10;41.50;;;18.90;39.60;98878.72;5004874;28;20459;-75
2022/07/17 06:35:23;;;;;;;2.57;1.80;;;20.70;42.40;;;18.36;41.05;98879.97;5001122;28;20909;-77
2022/07/17 06:37:50;;;;;;;5.27;1.70;;;19.80;43.30;;;17.89;41.85;98885.59;5002582;28;20484;-80
2022/07/17 06:40:18;;;;;;;1.67;1.43;;;19.30;43.50;;;17.80;42.44;98891.44;5017075;28;20465;-77
2022/07/17 06:42:46;;;;;;;4.70;1.80;;;19.00;44.10;;;17.93;42.33;98894.97;5019041;28;20526;-77
2022/07/17 06:45:13;;;;;;;4.93;1.40;;;18.90;44.50;;;17.75;42.88;98888.63;5003057;28;20460;-79
2022/07/17 06:47:41;;;;;;;2.33;1.40;;;18.80;44.80;;;17.82;42.81;98892.06;5001951;28;20460;-75
2022/07/17 06:50:10;;;;;;;7.93;1.87;;;18.80;44.80;;;17.88;42.78;98889.41;4997119;28;20451;-78
2022/07/17 06:52:37;;;;;;;2.00;1.50;;;18.90;45.00;;;17.91;41.87;98897.13;5006768;28;20463;-78
2022/07/17 06:55:06;;;;;;;2.17;1.63;;;18.90;44.90;;;17.83;41.87;98892.88;5009435;28;20474;-76
2022/07/17 06:57:33;;;;;;;5.83;1.50;;;18.80;44.10;;;18.15;41.52;98888.88;5009751;28;20525;-75
2022/07/17 07:00:00;;;;;;;5.27;1.83;;;19.00;44.50;;;18.21;41.21;98887.91;5010329;28;20509;-77
2022/07/17 07:02:28;;;;;;;3.03;1.40;;;19.10;44.30;;;18.46;40.99;98890.28;5027250;28;20497;-78
2022/07/17 07:04:55;;;;;;;4.27;1.80;;;19.30;44.20;;;18.62;40.71;98890.53;5007996;28;20456;-75
2022/07/17 07:07:23;;;;;;;2.30;1.20;;;19.50;44.30;;;18.73;40.88;98895.13;5007423;28;20924;-77
2022/07/17 07:09:51;;;;;;;2.00;1.20;;;19.60;44.50;;;18.75;40.85;98886.66;4995018;28;20475;-76
2022/07/17 07:12:18;;;;;;;3.40;1.90;;;19.60;44.40;;;18.88;40.57;98889.09;5006589;28;20992;-77
2022/07/17 07:14:45;;;;;;;3.23;1.50;;;19.80;44.30;;;18.59;40.66;98883.69;5012209;28;20467;-78
2022/07/17 07:17:12;;;;;;;4.40;1.30;;;19.70;44.00;;;18.78;40.22;98886.16;5026340;28;21073;-74
2022/07/17 07:19:40;;;;;;;3.53;1.83;;;19.70;43.90;;;18.73;40.17;98883.31;5007344;28;20616;-76
2022/07/17 07:22:07;;;;;;;4.70;1.50;;;19.70;43.90;;;19.04;40.22;98887.44;5001483;28;20877;-74
2022/07/17 07:24:36;;;;;;;2.47;1.47;;;19.90;44.20;;;19.25;39.98;98891.31;4996764;28;20815;-71
2022/07/17 07:27:04;;;;;;;3.20;1.63;;;20.00;44.70;;;19.31;39.91;98883.16;4999978;28;20459;-73
2022/07/17 07:29:31;;;;;;;3.07;1.47;;;20.10;44.30;;;19.49;39.78;98899.34;4996673;28;20460;-73
2022/07/17 07:31:58;;;;;;;1.87;1.07;;;20.30;44.40;;;19.72;39.52;98897.44;5000464;28;20479;-74
2022/07/17 07:34:26;;;;;;;2.10;1.20;;;20.50;44.40;;;19.96;39.18;98891.75;5006796;28;20455;-77
2022/07/17 07:36:53;;;;;;;1.70;1.57;;;20.80;44.30;;;19.95;38.60;98882.66;4996304;28;20479;-76
2022/07/17 07:39:21;;;;;;;2.23;1.27;;;20.80;43.80;;;19.54;39.33;98891.19;4989940;28;20598;-74
2022/07/17 07:41:49;;;;;;;3.77;1.33;;;20.70;43.80;;;19.61;39.26;98881.94;4989165;28;20510;-73
2022/07/17 07:44:17;;;;;;;3.70;1.40;;;20.60;43.90;;;20.07;38.51;98879.78;4988356;28;20459;-75
2022/07/17 07:46:45;;;;;;;3.77;1.53;;;20.80;44.00;;;20.31;38.45;98879.50;5006584;28;20463;-73
2022/07/17 07:49:12;;;;;;;2.80;1.57;;;21.10;44.20;;;20.30;37.29;98871.50;5006606;28;20542;-73
2022/07/17 07:51:39;;;;;;;4.70;1.73;;;21.20;43.40;;;20.39;37.48;98870.78;5004169;28;20689;-74
2022/07/17 07:54:07;;;;;;;4.50;1.40;;;21.30;43.40;;;20.34;37.38;98875.41;4998572;28;20452;-74
2022/07/17 07:56:34;;;;;;;2.00;1.20;;;21.30;43.30;;;20.46;37.27;98864.28;5009785;28;20455;-73
2022/07/17 07:59:03;;;;;;;2.60;1.70;;;21.40;43.30;;;20.37;37.45;98877.63;5016502;28;20447;-75
2022/07/17 08:01:31;;;;;;;1.77;1.40;;;21.30;43.40;;;20.51;36.90;98869.78;5011905;28;20533;-75
2022/07/17 08:03:58;;;;;;;1.93;1.17;;;21.30;43.00;;;20.59;36.71;98865.75;5004783;28;20567;-75
2022/07/17 08:06:25;;;;;;;2.13;1.40;;;21.40;43.00;;;20.70;36.30;98863.91;4990933;28;20466;-75
2022/07/17 08:08:53;;;;;;;2.23;1.60;;;21.50;42.90;;;20.84;36.39;98865.16;4994260;28;20829;-71
2022/07/17 08:11:20;;;;;;;4.37;1.53;;;21.60;43.00;;;20.46;36.67;98864.28;5001339;28;20882;-76
2022/07/17 08:13:48;;;;;;;2.07;1.43;;;21.50;42.60;;;20.58;34.96;98859.44;5006092;28;20498;-75
2022/07/17 08:16:16;;;;;;;2.00;1.30;;;21.40;41.90;;;20.58;35.75;98870.44;5004535;28;20456;-76
2022/07/17 08:18:43;;;;;;;2.00;1.40;;;21.50;42.20;;;20.81;35.32;98879.44;5012335;28;20473;-72
2022/07/17 08:21:11;;;;;;;3.63;1.50;;;21.60;42.20;;;21.28;35.04;98890.75;5018924;28;20447;-75
2022/07/17 08:23:38;;;;;;;1.87;1.43;;;21.90;42.30;;;21.20;35.31;98879.19;5012705;28;20480;-74
2022/07/17 08:26:06;;;;;;;1.67;1.00;;;22.00;42.50;;;21.14;35.71;98873.91;4989852;28;20480;-75
2022/07/17 08:28:33;;;;;;;2.87;1.60;;;22.00;42.50;;;21.20;35.80;98884.66;4987298;28;20472;-73
2022/07/17 08:31:00;;;;;;;2.70;1.23;;;22.00;42.70;;;20.80;35.89;98847.53;5007851;28;20470;-74
2022/07/17 08:33:29;;;;;;;2.93;1.13;;;22.00;42.60;;;21.01;35.88;98858.72;5010974;28;20463;-69
2022/07/17 08:35:56;;;;;;;2.03;1.33;;;21.90;42.70;;;21.44;35.81;98878.75;5007111;28;20876;-75
2022/07/17 08:38:24;;;;;;;3.23;1.70;;;22.00;42.80;;;21.61;34.43;98877.72;5005846;28;20453;-75
2022/07/17 08:40:53;;;;;;;4.00;1.30;;;22.30;42.20;;;21.47;34.62;98889.25;5007411;28;21016;-76
2022/07/17 08:43:21;;;;;;;1.87;1.20;;;22.20;42.10;;;21.43;35.00;98882.59;4987803;28;20454;-75
2022/07/17 08:45:49;;;;;;;4.50;1.50;;;22.20;42.40;;;21.46;34.93;98884.84;4986842;28;20456;-76
2022/07/17 08:48:18;;;;;;;2.20;1.37;;;22.20;42.20;;;21.65;34.46;98884.38;4987718;28;20566;-77
2022/07/17 08:50:49;;;;;;;2.67;1.50;;;22.40;42.20;;;21.59;34.86;98888.19;4987344;28;20514;-74
2022/07/17 08:53:16;;;;;;;2.13;1.60;;;22.40;42.30;;;21.64;35.27;98891.78;4988679;28;20456;-76
2022/07/17 08:55:44;;;;;;;3.10;1.20;;;22.40;42.70;;;21.40;35.01;98877.63;4988688;28;20464;-75
2022/07/17 08:58:16;;;;;;;1.77;1.20;;;22.30;42.40;;;21.46;35.82;98878.50;5002655;28;20463;-76
2022/07/17 09:00:44;;;;;;;2.50;1.33;;;22.20;42.70;;;21.66;35.33;98877.81;4999760;28;20493;-76
2022/07/17 09:03:12;;;;;;;4.23;1.60;;;22.30;42.60;;;21.64;35.04;98877.22;4998365;28;20932;-73
2022/07/17 09:05:40;;;;;;;1.57;1.10;;;22.30;42.50;;;21.86;34.95;98868.81;5007412;28;20525;-75
2022/07/17 09:08:23;;;;;;;3.07;1.20;;;22.50;42.50;;;21.63;35.74;98875.56;5010098;28;20457;-75
2022/07/17 09:10:53;;;;;;;2.90;1.83;;;22.40;43.10;;;21.33;35.96;98836.66;5010272;28;20457;-77
2022/07/17 09:13:23;;;;;;;4.30;1.50;;;22.30;42.90;;;21.51;35.46;98873.84;5009520;28;20962;-75
2022/07/17 09:15:52;;;;;;;2.10;1.80;;;22.30;42.80;;;21.69;35.90;98870.97;5009762;28;20470;-75
2022/07/17 09:18:21;;;;;;;3.83;1.70;;;22.30;43.00;;;21.63;35.53;98865.38;5003552;28;20545;-75
2022/07/17 09:20:51;;;;;;;3.03;1.47;;;22.40;42.80;;;21.77;35.61;98870.44;4990251;28;20475;-75
2022/07/17 09:23:22;;;;;;;2.30;1.40;;;22.40;42.90;;;21.88;35.71;98860.28;5006250;28;20527;-76
2022/07/17 09:25:52;;;;;;;3.27;1.47;;;22.50;42.90;;;21.89;34.57;98857.28;4990230;28;20442;-75
2022/07/17 09:28:21;;;;;;;1.97;1.30;;;22.60;42.30;;;22.09;34.24;98855.69;4990725;28;20957;-76
2022/07/17 09:30:52;;;;;;;2.50;1.53;;;22.80;42.30;;;21.93;34.07;98850.13;4991247;28;20463;-73
2022/07/17 09:33:22;;;;;;;2.40;1.80;;;22.70;42.00;;;21.90;34.10;98852.59;5008008;28;20472;-75
2022/07/17 09:35:52;;;;;;;3.40;1.60;;;22.70;42.10;;;21.74;34.26;98855.28;5009457;28;20477;-75
2022/07/17 09:38:33;;;;;;;2.50;1.70;;;22.50;41.90;;;21.88;34.11;98858.38;5010225;28;20541;-75
2022/07/17 09:41:12;;;;;;;1.97;1.40;;;22.60;42.00;;;21.85;34.23;98844.31;5010549;28;20761;-75
2022/07/17 09:43:47;;;;;;;2.50;1.30;;;22.60;41.90;;;21.88;33.53;98841.03;4997838;28;20452;-74
2022/07/17 09:46:18;;;;;;;2.00;1.57;;;22.60;41.40;;;22.06;33.38;98840.56;5009050;28;20452;-75
2022/07/17 09:48:48;;;;;;;2.67;1.60;;;22.70;41.60;;;22.30;33.14;98845.53;5007836;28;20471;-77
2022/07/17 09:51:18;;;;;;;1.50;1.40;;;22.90;41.40;;;22.27;32.68;98837.00;5010692;28;20521;-75
2022/07/17 09:53:51;;;;;;;1.53;1.43;;;22.90;41.10;;;22.32;33.18;98848.84;5009745;28;20442;-75
2022/07/17 09:56:21;;;;;;;2.90;1.60;;;23.00;41.50;;;22.10;33.07;98846.31;5008442;28;20509;-74
2022/07/17 09:58:52;;;;;;;1.77;1.20;;;22.80;41.10;;;22.21;32.64;98858.16;5005143;28;20514;-73
2022/07/17 10:01:21;;;;;;;2.50;1.23;;;22.90;40.90;;;21.97;32.96;98846.84;5010108;28;20466;-76
2022/07/17 10:03:51;;;;;;;2.63;1.37;;;22.70;40.90;;;22.21;33.22;98852.66;5000277;28;20460;-76
2022/07/17 10:06:19;;;;;;;3.30;1.77;;;22.80;41.30;;;22.17;32.67;98840.56;5000388;28;20466;-77
2022/07/17 10:08:48;;;;;;;2.50;1.60;;;22.90;40.90;;;22.21;32.49;98847.16;4989445;28;20566;-76
2022/07/17 10:11:16;;;;;;;2.33;1.50;;;22.90;40.80;;;22.23;32.60;98850.50;4993327;28;21010;-74
2022/07/17 10:13:46;;;;;;;2.67;1.37;;;22.90;40.80;;;22.31;32.11;98858.19;5024122;28;21063;-76
2022/07/17 10:16:14;;;;;;;2.07;1.63;;;22.90;40.50;;;22.31;32.63;98844.44;5004031;28;20476;-75
2022/07/17 10:18:44;;;;;;;2.10;1.40;;;23.10;41.00;;;22.36;32.85;98843.63;5004784;28;20825;-74
2022/07/17 10:21:15;;;;;;;3.67;1.80;;;23.00;41.10;;;22.36;32.39;98827.91;4990418;28;20464;-74
2022/07/17 10:23:44;;;;;;;6.43;1.57;;;23.10;40.90;;;22.48;32.46;98843.38;4989232;28;20452;-73